Check out our new BloomSky Weather System.

Active alerts


No alerts


Thunder radar  blitzortung!


Rain radar more information rain snow radar


Visit our other weather sites:

Template documentation
and downloads

And another site



Weather Underground History page Text

Daily Summary for September 24, 2017 Units:  English    Metric   Both
« Previous Day
Next Day »
Daily Weekly Monthly Yearly Custom
  High: Low: Average:
Temperature: 92.5 °F 72.3 °F 80.1 °F
Dew Point: 78.3 °F 71.1 °F 73.7 °F
Humidity: 100 % 54 % 83 %
Wind Speed: 10.0 mph 0.0 mph 1.5 mph
Wind Gust: 18.0 mph - -
Wind:- - ESE
Pressure: 29.90 in 29.81 in -
Precipitation: 0.00 in    
Historical Graphs
 
 
Tabular Data for September 24, 2017
Time Temperature Dew Point Pressure Wind Wind Speed Wind Gust Humidity Rainfall Rate (Hourly)
00:03 75.0 °F 72.9 °F 29.87 in Calm     93 % 0.00 in
00:08 75.4 °F 73.6 °F 29.87 in Calm   1.0 mph 94 % 0.00 in
00:13 75.4 °F 73.6 °F 29.87 in Calm   1.0 mph 94 % 0.00 in
00:18 75.2 °F 73.4 °F 29.87 in Calm   1.0 mph 94 % 0.00 in
00:23 75.2 °F 73.4 °F 29.87 in Calm   1.0 mph 94 % 0.00 in
00:28 75.4 °F 73.8 °F 29.87 in Calm   1.0 mph 95 % 0.00 in
00:33 75.4 °F 73.6 °F 29.87 in Calm   1.0 mph 94 % 0.00 in
00:38 75.4 °F 73.6 °F 29.87 in Calm   1.0 mph 94 % 0.00 in
00:43 75.0 °F 73.2 °F 29.87 in Calm     94 % 0.00 in
00:48 75.0 °F 73.2 °F 29.86 in Calm     94 % 0.00 in
00:53 74.8 °F 73.0 °F 29.86 in Calm     94 % 0.00 in
00:58 74.7 °F 73.2 °F 29.87 in Calm     95 % 0.00 in
01:03 74.5 °F 73.0 °F 29.87 in Calm     95 % 0.00 in
01:08 74.7 °F 73.2 °F 29.87 in Calm   1.0 mph 95 % 0.00 in
01:13 74.7 °F 73.2 °F 29.86 in Calm   1.0 mph 95 % 0.00 in
01:18 74.7 °F 73.2 °F 29.87 in Calm   1.0 mph 95 % 0.00 in
01:23 74.5 °F 73.0 °F 29.87 in Calm   1.0 mph 95 % 0.00 in
01:28 74.3 °F 73.0 °F 29.87 in Calm     96 % 0.00 in
01:33 74.1 °F 72.9 °F 29.87 in Calm     96 % 0.00 in
01:38 74.1 °F 72.9 °F 29.87 in Calm     96 % 0.00 in
01:43 74.1 °F 72.9 °F 29.87 in Calm     96 % 0.00 in
01:48 73.9 °F 72.7 °F 29.87 in Calm     96 % 0.00 in
01:53 73.9 °F 72.7 °F 29.87 in Calm     96 % 0.00 in
01:58 73.9 °F 72.7 °F 29.87 in Calm     96 % 0.00 in
02:03 73.9 °F 72.7 °F 29.87 in Calm     96 % 0.00 in
02:08 73.8 °F 72.5 °F 29.88 in Calm   1.0 mph 96 % 0.00 in
02:13 73.8 °F 72.5 °F 29.87 in Calm   1.0 mph 96 % 0.00 in
02:18 73.8 °F 72.9 °F 29.87 in Calm   1.0 mph 97 % 0.00 in
02:24 73.6 °F 72.7 °F 29.87 in Calm     97 % 0.00 in
02:29 73.6 °F 72.7 °F 29.87 in Calm     97 % 0.00 in
02:34 73.6 °F 72.7 °F 29.87 in Calm     97 % 0.00 in
02:39 73.6 °F 72.7 °F 29.87 in Calm     97 % 0.00 in
02:44 73.6 °F 72.7 °F 29.87 in Calm     97 % 0.00 in
02:49 73.6 °F 72.7 °F 29.87 in Calm     97 % 0.00 in
02:54 73.6 °F 72.7 °F 29.87 in Calm     97 % 0.00 in
02:59 73.6 °F 72.7 °F 29.87 in Calm     97 % 0.00 in
03:04 73.4 °F 72.5 °F 29.87 in Calm     97 % 0.00 in
03:09 73.2 °F 72.3 °F 29.87 in Calm     97 % 0.00 in
03:14 73.4 °F 72.5 °F 29.87 in Calm     97 % 0.00 in
03:19 73.6 °F 73.0 °F 29.87 in Calm     98 % 0.00 in
03:24 73.6 °F 73.0 °F 29.86 in Calm   1.0 mph 98 % 0.00 in
03:29 73.4 °F 72.9 °F 29.86 in Calm   1.0 mph 98 % 0.00 in
03:34 73.2 °F 72.7 °F 29.86 in Calm   1.0 mph 98 % 0.00 in
03:39 73.2 °F 72.7 °F 29.86 in Calm     98 % 0.00 in
03:44 73.0 °F 72.5 °F 29.86 in Calm     98 % 0.00 in
03:49 73.0 °F 72.5 °F 29.87 in Calm     98 % 0.00 in
03:54 73.0 °F 72.5 °F 29.87 in Calm     98 % 0.00 in
03:59 72.9 °F 72.3 °F 29.87 in Calm     98 % 0.00 in
04:04 72.9 °F 72.3 °F 29.87 in Calm     98 % 0.00 in
04:09 73.0 °F 72.5 °F 29.87 in Calm     98 % 0.00 in
04:14 72.9 °F 72.3 °F 29.87 in Calm     98 % 0.00 in
04:19 72.9 °F 72.3 °F 29.87 in Calm     98 % 0.00 in
04:24 72.9 °F 72.3 °F 29.87 in Calm     98 % 0.00 in
04:29 72.9 °F 72.3 °F 29.87 in Calm   1.0 mph 98 % 0.00 in
04:39 72.9 °F 72.3 °F 29.87 in Calm   1.0 mph 98 % 0.00 in
04:44 73.0 °F 72.7 °F 29.87 in Calm   1.0 mph 99 % 0.00 in
04:49 73.0 °F 72.7 °F 29.86 in Calm   1.0 mph 99 % 0.00 in
04:54 73.0 °F 72.7 °F 29.86 in Calm   1.0 mph 99 % 0.00 in
04:59 73.0 °F 72.7 °F 29.86 in Calm     99 % 0.00 in
05:01 73.0 °F 72.7 °F 29.86 in Calm     99 % 0.00 in
05:06 73.0 °F 72.7 °F 29.86 in Calm     99 % 0.00 in
05:11 73.0 °F 72.7 °F 29.86 in Calm     99 % 0.00 in
05:21 72.9 °F 72.5 °F 29.86 in Calm     99 % 0.00 in
05:26 72.9 °F 72.5 °F 29.86 in Calm     99 % 0.00 in
05:31 72.9 °F 72.5 °F 29.86 in Calm     99 % 0.00 in
05:36 72.7 °F 72.3 °F 29.86 in Calm     99 % 0.00 in
05:46 72.7 °F 72.3 °F 29.86 in Calm   1.0 mph 99 % 0.00 in
05:51 72.7 °F 72.3 °F 29.86 in Calm   1.0 mph 99 % 0.00 in
05:56 72.7 °F 72.3 °F 29.86 in Calm   1.0 mph 99 % 0.00 in
06:01 72.7 °F 72.3 °F 29.86 in Calm   1.0 mph 99 % 0.00 in
06:06 72.5 °F 72.1 °F 29.86 in Calm   1.0 mph 99 % 0.00 in
06:11 72.5 °F 72.1 °F 29.86 in Calm   1.0 mph 99 % 0.00 in
06:16 72.5 °F 72.1 °F 29.86 in Calm   1.0 mph 99 % 0.00 in
06:21 72.5 °F 72.1 °F 29.86 in Calm   1.0 mph 99 % 0.00 in
06:26 72.3 °F 72.0 °F 29.86 in Calm   1.0 mph 99 % 0.00 in
06:31 72.3 °F 72.0 °F 29.86 in Calm   1.0 mph 99 % 0.00 in
06:36 72.7 °F 72.3 °F 29.86 in Calm   1.0 mph 99 % 0.00 in
06:41 72.7 °F 72.3 °F 29.86 in Calm   1.0 mph 99 % 0.00 in
06:46 72.7 °F 72.3 °F 29.86 in Calm   1.0 mph 99 % 0.00 in
06:51 72.7 °F 72.3 °F 29.86 in Calm   1.0 mph 99 % 0.00 in
06:56 72.7 °F 72.3 °F 29.86 in Calm   1.0 mph 99 % 0.00 in
07:01 72.7 °F 72.3 °F 29.87 in Calm     99 % 0.00 in
07:06 72.7 °F 72.3 °F 29.87 in Calm   1.0 mph 99 % 0.00 in
07:07 72.7 °F 72.3 °F 29.87 in Calm   1.0 mph 99 % 0.00 in
07:12 72.7 °F 72.3 °F 29.87 in Calm   3.0 mph 99 % 0.00 in
07:17 72.9 °F 72.5 °F 29.87 in North 1.0 mph 3.0 mph 99 % 0.00 in
07:22 72.9 °F 72.5 °F 29.87 in Calm   3.0 mph 99 % 0.00 in
07:27 72.9 °F 72.5 °F 29.87 in Calm   1.0 mph 99 % 0.00 in
07:32 72.9 °F 72.5 °F 29.87 in Calm   1.0 mph 99 % 0.00 in
07:37 72.9 °F 72.5 °F 29.87 in Calm     99 % 0.00 in
07:42 72.9 °F 72.5 °F 29.87 in Calm   1.0 mph 99 % 0.00 in
07:47 73.0 °F 72.7 °F 29.87 in Calm   1.0 mph 99 % 0.00 in
07:52 73.2 °F 73.2 °F 29.87 in Calm   2.0 mph 100 % 0.00 in
07:57 73.4 °F 73.4 °F 29.87 in Calm   2.0 mph 100 % 0.00 in
08:02 73.8 °F 73.8 °F 29.87 in Calm   2.0 mph 100 % 0.00 in
08:07 74.1 °F 74.1 °F 29.88 in Calm   3.0 mph 100 % 0.00 in
08:12 74.7 °F 74.7 °F 29.88 in Calm   3.0 mph 100 % 0.00 in
08:17 75.0 °F 74.7 °F 29.88 in Calm   3.0 mph 99 % 0.00 in
08:22 75.4 °F 75.0 °F 29.88 in Calm   3.0 mph 99 % 0.00 in
08:27 76.1 °F 75.7 °F 29.88 in Calm   3.0 mph 99 % 0.00 in
08:32 76.6 °F 76.3 °F 29.88 in Calm   4.0 mph 99 % 0.00 in
08:37 77.2 °F 76.6 °F 29.88 in Calm   4.0 mph 98 % 0.00 in
08:42 77.5 °F 76.3 °F 29.89 in Calm   4.0 mph 96 % 0.00 in
08:47 78.1 °F 76.5 °F 29.89 in Calm   4.0 mph 95 % 0.00 in
08:52 78.4 °F 76.6 °F 29.89 in Calm   4.0 mph 94 % 0.00 in
08:57 79.2 °F 77.0 °F 29.89 in Calm   4.0 mph 93 % 0.00 in
09:02 80.1 °F 77.2 °F 29.88 in Calm   3.0 mph 91 % 0.00 in
09:07 80.8 °F 76.8 °F 29.89 in ESE 1.0 mph 3.0 mph 88 % 0.00 in
09:13 81.1 °F 76.8 °F 29.89 in East 2.0 mph 4.0 mph 87 % 0.00 in
09:18 81.3 °F 77.0 °F 29.89 in East 3.0 mph 8.0 mph 87 % 0.00 in
09:23 81.3 °F 76.6 °F 29.89 in SSE 3.0 mph 8.0 mph 86 % 0.00 in
09:28 81.9 °F 77.2 °F 29.89 in SE 1.0 mph 8.0 mph 86 % 0.00 in
09:33 82.6 °F 77.5 °F 29.89 in ESE 1.0 mph 4.0 mph 85 % 0.00 in
09:38 82.9 °F 77.5 °F 29.89 in ESE 2.0 mph 6.0 mph 84 % 0.00 in
09:43 83.1 °F 77.7 °F 29.90 in NE 3.0 mph 6.0 mph 84 % 0.00 in
09:48 83.5 °F 77.4 °F 29.90 in ESE 4.0 mph 6.0 mph 82 % 0.00 in
09:53 83.7 °F 77.5 °F 29.90 in ENE 3.0 mph 5.0 mph 82 % 0.00 in
09:58 84.0 °F 77.9 °F 29.90 in NNW 3.0 mph 6.0 mph 82 % 0.00 in
10:03 84.4 °F 77.9 °F 29.90 in SE 3.0 mph 6.0 mph 81 % 0.00 in
10:08 84.2 °F 77.4 °F 29.90 in SSE 3.0 mph 7.0 mph 80 % 0.00 in
10:13 83.8 °F 77.0 °F 29.90 in NE 2.0 mph 7.0 mph 80 % 0.00 in
10:18 83.7 °F 77.2 °F 29.90 in East 4.0 mph 7.0 mph 81 % 0.00 in
10:23 83.8 °F 77.4 °F 29.90 in ESE 3.0 mph 7.0 mph 81 % 0.00 in
10:28 83.8 °F 77.4 °F 29.90 in South 1.0 mph 8.0 mph 81 % 0.00 in
10:33 84.6 °F 77.0 °F 29.90 in SE 3.0 mph 8.0 mph 78 % 0.00 in
10:38 84.6 °F 78.1 °F 29.90 in Calm   8.0 mph 81 % 0.00 in
10:43 84.9 °F 78.1 °F 29.90 in SE 1.0 mph 7.0 mph 80 % 0.00 in
10:48 85.3 °F 77.2 °F 29.90 in NE 3.0 mph 5.0 mph 77 % 0.00 in
10:53 86.0 °F 78.3 °F 29.90 in ENE 3.0 mph 7.0 mph 78 % 0.00 in
10:58 86.2 °F 77.0 °F 29.90 in ENE 4.0 mph 10.0 mph 74 % 0.00 in
11:03 85.3 °F 76.5 °F 29.90 in ESE 2.0 mph 11.0 mph 75 % 0.00 in
11:08 84.9 °F 76.5 °F 29.90 in ENE 4.0 mph 11.0 mph 76 % 0.00 in
11:13 85.1 °F 76.3 °F 29.90 in NE 2.0 mph 11.0 mph 75 % 0.00 in
11:18 85.1 °F 76.3 °F 29.90 in SSE 2.0 mph 8.0 mph 75 % 0.00 in
11:23 84.9 °F 76.1 °F 29.90 in North 2.0 mph 7.0 mph 75 % 0.00 in
11:28 85.1 °F 76.3 °F 29.89 in East 2.0 mph 8.0 mph 75 % 0.00 in
11:33 85.6 °F 76.5 °F 29.89 in East 3.0 mph 12.0 mph 74 % 0.00 in
11:38 85.5 °F 75.4 °F 29.89 in East 3.0 mph 12.0 mph 72 % 0.00 in
11:43 86.0 °F 77.2 °F 29.89 in East 4.0 mph 12.0 mph 75 % 0.00 in
11:48 86.5 °F 76.8 °F 29.89 in ESE 5.0 mph 9.0 mph 73 % 0.00 in
11:53 86.5 °F 76.8 °F 29.89 in SE 1.0 mph 7.0 mph 73 % 0.00 in
11:58 86.7 °F 76.1 °F 29.89 in ESE 9.0 mph 9.0 mph 71 % 0.00 in
12:03 86.5 °F 75.9 °F 29.89 in ENE 7.0 mph 9.0 mph 71 % 0.00 in
12:09 86.4 °F 75.4 °F 29.89 in ESE 4.0 mph 9.0 mph 70 % 0.00 in
12:14 86.4 °F 75.0 °F 29.89 in ESE 2.0 mph 9.0 mph 69 % 0.00 in
12:19 86.5 °F 75.6 °F 29.89 in SSE 2.0 mph 8.0 mph 70 % 0.00 in
12:24 87.1 °F 76.1 °F 29.89 in South 6.0 mph 8.0 mph 70 % 0.00 in
12:29 87.6 °F 75.7 °F 29.89 in ESE 4.0 mph 10.0 mph 68 % 0.00 in
12:34 87.8 °F 75.9 °F 29.89 in SE 3.0 mph 10.0 mph 68 % 0.00 in
12:39 88.0 °F 75.6 °F 29.89 in ESE 4.0 mph 10.0 mph 67 % 0.00 in
12:44 88.0 °F 76.1 °F 29.89 in Calm   6.0 mph 68 % 0.00 in
12:49 88.2 °F 75.7 °F 29.89 in East 4.0 mph 6.0 mph 67 % 0.00 in
12:54 87.6 °F 75.4 °F 29.89 in ESE 3.0 mph 6.0 mph 67 % 0.00 in
12:59 87.8 °F 75.0 °F 29.88 in SSE 4.0 mph 6.0 mph 66 % 0.00 in
13:04 88.2 °F 74.8 °F 29.88 in East 5.0 mph 6.0 mph 65 % 0.00 in
13:09 88.5 °F 75.2 °F 29.88 in ESE 3.0 mph 8.0 mph 65 % 0.00 in
13:14 89.1 °F 75.7 °F 29.87 in NW 3.0 mph 8.0 mph 65 % 0.00 in
13:19 89.8 °F 74.5 °F 29.87 in SE 4.0 mph 9.0 mph 61 % 0.00 in
13:24 90.0 °F 74.7 °F 29.87 in SSE 5.0 mph 9.0 mph 61 % 0.00 in
13:29 90.3 °F 74.5 °F 29.87 in SE 7.0 mph 9.0 mph 60 % 0.00 in
13:34 90.3 °F 73.6 °F 29.86 in East 2.0 mph 9.0 mph 58 % 0.00 in
13:39 90.0 °F 74.1 °F 29.86 in South 2.0 mph 9.0 mph 60 % 0.00 in
13:44 90.0 °F 74.1 °F 29.86 in East 4.0 mph 9.0 mph 60 % 0.00 in
13:49 90.0 °F 74.1 °F 29.86 in East 3.0 mph 9.0 mph 60 % 0.00 in
13:54 90.1 °F 73.9 °F 29.86 in SE 4.0 mph 9.0 mph 59 % 0.00 in
13:55 90.3 °F 75.0 °F 29.86 in ESE 4.0 mph 8.0 mph 61 % 0.00 in
14:00 90.5 °F 72.7 °F 29.86 in SE 4.0 mph 8.0 mph 56 % 0.00 in
14:05 90.7 °F 73.9 °F 29.85 in East 3.0 mph 10.0 mph 58 % 0.00 in
14:10 91.0 °F 74.1 °F 29.85 in SE 3.0 mph 10.0 mph 58 % 0.00 in
14:15 91.2 °F 74.3 °F 29.85 in ENE 4.0 mph 10.0 mph 58 % 0.00 in
14:20 91.6 °F 75.2 °F 29.84 in NNE 2.0 mph 7.0 mph 59 % 0.00 in
14:25 92.1 °F 76.3 °F 29.84 in ENE 4.0 mph 7.0 mph 60 % 0.00 in
14:30 91.8 °F 74.3 °F 29.84 in South 1.0 mph 7.0 mph 57 % 0.00 in
14:35 92.5 °F 75.0 °F 29.84 in NE 1.0 mph 7.0 mph 57 % 0.00 in
14:40 92.1 °F 74.1 °F 29.83 in ESE 4.0 mph 7.0 mph 56 % 0.00 in
14:45 91.6 °F 73.0 °F 29.83 in SSE 2.0 mph 9.0 mph 55 % 0.00 in
14:50 91.6 °F 74.1 °F 29.83 in East 7.0 mph 9.0 mph 57 % 0.00 in
14:55 91.2 °F 73.8 °F 29.83 in ESE 3.0 mph 11.0 mph 57 % 0.00 in
15:00 90.9 °F 73.6 °F 29.83 in ENE 2.0 mph 11.0 mph 57 % 0.00 in
15:05 90.5 °F 74.1 °F 29.83 in ENE 9.0 mph 11.0 mph 59 % 0.00 in
15:10 90.1 °F 73.4 °F 29.82 in East 3.0 mph 9.0 mph 58 % 0.00 in
15:15 90.1 °F 72.9 °F 29.82 in SSW 2.0 mph 9.0 mph 57 % 0.00 in
15:20 90.1 °F 73.4 °F 29.82 in SSE 1.0 mph 9.0 mph 58 % 0.00 in
15:25 90.5 °F 73.2 °F 29.82 in ESE 4.0 mph 8.0 mph 57 % 0.00 in
15:30 90.7 °F 73.4 °F 29.82 in East 4.0 mph 8.0 mph 57 % 0.00 in
15:35 90.9 °F 72.5 °F 29.82 in East 4.0 mph 8.0 mph 55 % 0.00 in
15:40 90.9 °F 72.0 °F 29.82 in ENE 3.0 mph 9.0 mph 54 % 0.00 in
15:45 90.9 °F 75.0 °F 29.81 in SE 5.0 mph 9.0 mph 60 % 0.00 in
15:50 89.4 °F 74.7 °F 29.81 in NNW 5.0 mph 12.0 mph 62 % 0.00 in
15:55 88.7 °F 75.0 °F 29.82 in SE 6.0 mph 12.0 mph 64 % 0.00 in
16:00 88.2 °F 74.5 °F 29.81 in SE 2.0 mph 12.0 mph 64 % 0.00 in
16:05 87.4 °F 74.3 °F 29.81 in SE 3.0 mph 10.0 mph 65 % 0.00 in
16:10 87.3 °F 74.5 °F 29.81 in East 7.0 mph 10.0 mph 66 % 0.00 in
16:15 87.8 °F 75.0 °F 29.81 in East 3.0 mph 8.0 mph 66 % 0.00 in
16:25 88.7 °F 75.0 °F 29.81 in NNW 1.0 mph 11.0 mph 64 % 0.00 in
16:30 89.1 °F 74.3 °F 29.81 in SE 4.0 mph 11.0 mph 62 % 0.00 in
16:40 89.4 °F 74.7 °F 29.81 in ESE 3.0 mph 9.0 mph 62 % 0.00 in
16:45 89.4 °F 73.8 °F 29.81 in East 4.0 mph 11.0 mph 60 % 0.00 in
16:50 89.2 °F 74.5 °F 29.81 in ENE 4.0 mph 11.0 mph 62 % 0.00 in
16:55 89.2 °F 74.5 °F 29.81 in ESE 4.0 mph 11.0 mph 62 % 0.00 in
17:00 89.1 °F 74.3 °F 29.81 in ENE 3.0 mph 10.0 mph 62 % 0.00 in
17:05 89.1 °F 74.3 °F 29.81 in ESE 4.0 mph 9.0 mph 62 % 0.00 in
17:11 89.1 °F 73.9 °F 29.81 in NNE 4.0 mph 9.0 mph 61 % 0.00 in
17:16 89.2 °F 73.9 °F 29.81 in SE 3.0 mph 9.0 mph 61 % 0.00 in
17:21 89.2 °F 73.6 °F 29.81 in ESE 3.0 mph 9.0 mph 60 % 0.00 in
17:26 89.1 °F 73.9 °F 29.81 in ESE 3.0 mph 9.0 mph 61 % 0.00 in
17:31 89.1 °F 73.4 °F 29.81 in South 1.0 mph 9.0 mph 60 % 0.00 in
17:36 88.7 °F 73.6 °F 29.81 in Calm   9.0 mph 61 % 0.00 in
17:41 88.5 °F 73.4 °F 29.81 in West 3.0 mph 9.0 mph 61 % 0.00 in
17:46 88.9 °F 73.8 °F 29.81 in NNE 1.0 mph 9.0 mph 61 % 0.00 in
17:51 89.1 °F 73.9 °F 29.81 in East 5.0 mph 8.0 mph 61 % 0.00 in
17:56 88.3 °F 73.6 °F 29.82 in WNW 5.0 mph 8.0 mph 62 % 0.00 in
18:01 87.1 °F 73.9 °F 29.82 in SE 1.0 mph 18.0 mph 65 % 0.00 in
18:06 86.2 °F 73.9 °F 29.82 in ESE 10.0 mph 18.0 mph 67 % 0.00 in
18:11 84.9 °F 73.6 °F 29.82 in ENE 2.0 mph 18.0 mph 69 % 0.00 in
18:16 84.4 °F 73.6 °F 29.82 in NE 1.0 mph 18.0 mph 70 % 0.00 in
18:21 83.8 °F 73.4 °F 29.83 in ESE 3.0 mph 16.0 mph 71 % 0.00 in
18:25 83.5 °F 73.0 °F 29.83 in ESE 4.0 mph 11.0 mph 71 % 0.00 in
18:30 82.9 °F 73.4 °F 29.83 in ESE 5.0 mph 11.0 mph 73 % 0.00 in
18:35 82.6 °F 74.3 °F 29.83 in East 7.0 mph 11.0 mph 76 % 0.00 in
18:40 82.4 °F 73.8 °F 29.83 in SE 5.0 mph 10.0 mph 75 % 0.00 in
18:45 82.2 °F 73.9 °F 29.83 in SSW 1.0 mph 10.0 mph 76 % 0.00 in
18:46 82.2 °F 73.9 °F 29.83 in ESE 6.0 mph 10.0 mph 76 % 0.00 in
18:51 82.2 °F 74.3 °F 29.83 in ESE 8.0 mph 10.0 mph 77 % 0.00 in
18:56 82.0 °F 74.5 °F 29.83 in East 5.0 mph 9.0 mph 78 % 0.00 in
19:01 81.9 °F 74.7 °F 29.84 in ESE 2.0 mph 9.0 mph 79 % 0.00 in
19:06 81.9 °F 74.7 °F 29.84 in East 1.0 mph 8.0 mph 79 % 0.00 in
19:11 81.7 °F 74.5 °F 29.84 in SSE 2.0 mph 7.0 mph 79 % 0.00 in
19:16 81.3 °F 74.5 °F 29.84 in NE 6.0 mph 8.0 mph 80 % 0.00 in
19:22 81.0 °F 74.7 °F 29.84 in NE 2.0 mph 8.0 mph 81 % 0.00 in
19:26 80.4 °F 74.1 °F 29.84 in ESE 7.0 mph 8.0 mph 81 % 0.00 in
19:31 80.2 °F 74.3 °F 29.84 in ESE 3.0 mph 8.0 mph 82 % 0.00 in
19:36 79.9 °F 73.9 °F 29.84 in SSE 2.0 mph 8.0 mph 82 % 0.00 in
19:42 79.7 °F 74.1 °F 29.84 in ENE 4.0 mph 8.0 mph 83 % 0.00 in
19:47 79.5 °F 73.9 °F 29.84 in Calm   6.0 mph 83 % 0.00 in
19:52 79.3 °F 73.8 °F 29.84 in Calm   6.0 mph 83 % 0.00 in
19:57 79.2 °F 73.6 °F 29.84 in East 1.0 mph 6.0 mph 83 % 0.00 in
20:02 79.0 °F 73.0 °F 29.84 in East 2.0 mph 6.0 mph 82 % 0.00 in
20:07 79.0 °F 73.0 °F 29.85 in Calm   4.0 mph 82 % 0.00 in
20:12 78.6 °F 72.7 °F 29.85 in East 1.0 mph 4.0 mph 82 % 0.00 in
20:17 78.4 °F 72.5 °F 29.85 in Calm   4.0 mph 82 % 0.00 in
20:22 78.3 °F 72.3 °F 29.85 in East 2.0 mph 4.0 mph 82 % 0.00 in
20:27 78.1 °F 72.1 °F 29.85 in ENE 1.0 mph 4.0 mph 82 % 0.00 in
20:32 77.9 °F 72.0 °F 29.86 in Calm   3.0 mph 82 % 0.00 in
20:37 77.7 °F 71.8 °F 29.86 in ESE 1.0 mph 3.0 mph 82 % 0.00 in
20:42 77.5 °F 72.0 °F 29.86 in Calm   3.0 mph 83 % 0.00 in
20:47 77.5 °F 72.0 °F 29.86 in Calm   2.0 mph 83 % 0.00 in
20:52 77.4 °F 71.8 °F 29.86 in Calm   2.0 mph 83 % 0.00 in
20:57 77.4 °F 71.8 °F 29.87 in Calm   2.0 mph 83 % 0.00 in
21:02 77.4 °F 71.4 °F 29.87 in Calm   2.0 mph 82 % 0.00 in
21:07 77.2 °F 71.2 °F 29.87 in Calm   2.0 mph 82 % 0.00 in
21:12 77.2 °F 71.2 °F 29.87 in Calm   2.0 mph 82 % 0.00 in
21:17 77.2 °F 71.2 °F 29.87 in Calm   1.0 mph 82 % 0.00 in
21:22 76.8 °F 71.2 °F 29.87 in Calm   1.0 mph 83 % 0.00 in
21:27 76.8 °F 71.2 °F 29.87 in Calm   1.0 mph 83 % 0.00 in
21:32 76.8 °F 71.2 °F 29.87 in Calm   1.0 mph 83 % 0.00 in
21:37 76.8 °F 71.2 °F 29.87 in Calm   1.0 mph 83 % 0.00 in
21:42 76.6 °F 71.1 °F 29.87 in Calm   1.0 mph 83 % 0.00 in
21:47 76.6 °F 71.4 °F 29.87 in Calm   1.0 mph 84 % 0.00 in
21:52 76.5 °F 71.2 °F 29.87 in Calm   1.0 mph 84 % 0.00 in
21:57 76.3 °F 71.4 °F 29.87 in Calm   1.0 mph 85 % 0.00 in
22:02 76.1 °F 71.2 °F 29.87 in Calm   1.0 mph 85 % 0.00 in
22:07 76.1 °F 71.2 °F 29.87 in Calm   1.0 mph 85 % 0.00 in
22:18 75.9 °F 71.4 °F 29.87 in Calm     86 % 0.00 in
22:21 75.9 °F 71.4 °F 29.87 in Calm     86 % 0.00 in
22:22 75.9 °F 71.4 °F 29.87 in Calm     86 % 0.00 in
22:23 75.9 °F 71.4 °F 29.88 in NE 1.0 mph   86 % 0.00 in
22:26 75.9 °F 71.4 °F 29.87 in Calm   1.0 mph 86 % 0.00 in
22:30 75.9 °F 71.4 °F 29.88 in Calm   1.0 mph 86 % 0.00 in
22:31 75.7 °F 71.2 °F 29.88 in Calm   1.0 mph 86 % 0.00 in
22:36 75.7 °F 71.6 °F 29.88 in Calm   1.0 mph 87 % 0.00 in
22:41 75.7 °F 71.6 °F 29.88 in Calm   1.0 mph 87 % 0.00 in
22:46 75.6 °F 71.4 °F 29.88 in Calm   1.0 mph 87 % 0.00 in
22:51 75.6 °F 71.8 °F 29.88 in Calm   1.0 mph 88 % 0.00 in
22:56 75.6 °F 71.8 °F 29.88 in Calm   1.0 mph 88 % 0.00 in
23:01 75.6 °F 71.8 °F 29.87 in Calm   1.0 mph 88 % 0.00 in
23:06 75.6 °F 71.8 °F 29.87 in Calm   1.0 mph 88 % 0.00 in
23:11 75.4 °F 71.6 °F 29.87 in Calm   1.0 mph 88 % 0.00 in
23:16 75.4 °F 72.0 °F 29.87 in Calm   1.0 mph 89 % 0.00 in
23:21 75.4 °F 72.0 °F 29.87 in Calm   1.0 mph 89 % 0.00 in
23:26 75.2 °F 71.8 °F 29.87 in Calm   1.0 mph 89 % 0.00 in
23:31 75.2 °F 72.1 °F 29.87 in Calm   1.0 mph 90 % 0.00 in
23:36 75.2 °F 72.1 °F 29.87 in Calm   1.0 mph 90 % 0.00 in
23:41 75.0 °F 72.0 °F 29.87 in Calm   1.0 mph 90 % 0.00 in
23:46 75.0 °F 72.0 °F 29.87 in Calm   1.0 mph 90 % 0.00 in
23:51 75.0 °F 72.1 °F 29.86 in Calm   1.0 mph 91 % 0.00 in
23:56 74.8 °F 72.0 °F 29.86 in Calm   1.0 mph 91 % 0.00 in
Spring, Texas: Villages of Bridgestone
Compliments of Weather Underground - 2.75 mb

Script developed by  Jim McMurry - jmcmurry@mwt.net Adapted for the template by  Wim van der Kuil - Leuven-Template.eu

You find our weather info also at:

UK Metoffice

WeatherCloud

Weather Underground

Mid-South Weather Network

AWEKAS

Citizen Weather Observer Program (CWOP)

HAMweather, WeatherForYou, PWS Weather

Equipment we use:

Weather-station
Davis Vantage Vue

Weather-program
Meteohub

Weather-server
Debian 7.9 x86 (Guest)

Provider
DreamHost

Davis Vantage Vue

Meteohub

Debian 7.9 x86 (Guest)

DreamHost